テヘラン の空港の天気 - METARとTAF

メヘラーバード国際空港(テヘラン) ( OIII / THR ) - イラン テヘラン
飛行場実況気象(Metar)
観測時間05/28 04:30 IRDT (05/28 00:00 UTC)
風向・風速北東 2m/s
視程10km以上
天気現象
少しの雲 雲底高度 3050m
気温28℃
湿度17%
気圧1019hPa
METAROIII 280000Z 04004KT 9999 FEW100 28/01 Q1019 A3011 NOSIG
過去の天気等 Google飛行場航空写真 Wunderground天気予報

過去48時間のMETAR

飛行場予報(TAF)
発表時間: 5/28 03:30 IRDT (5/27 23:00 UTC)
予報対象時間: 28日4時 IRDT ~ 29日10時 IRDT
風向・風速西北西 3m/s
視程8000m
少しの雲 雲底高度 1220m
28日16時 IRDT ~ 28日22時 IRDT に一時的に
風向・風速西南西 8m/s
少しの積乱雲 雲底高度 1070m
全天の4割程度の雲 雲底高度 1220m
TAF OIII 272300Z 2800/2906 30006KT 8000 FEW040
TEMPO 2812/2818 25016KT FEW035CB SCT040